This is the latest recevied weather packets stored in our database for station/object VANOK. If no packets are shown the sender has not sent any weather packets the latest 10 day(s).
| Time | Temp. | Humidity | Pressure | Rain* | Wind** | Luminosity | Snow |
|---|---|---|---|---|---|---|---|
| 1778057246 | 7.22° C | 61% | 1014.2 hPa | - | - | - | - |
| 1778056046 | 7.78° C | 57% | 1014.2 hPa | - | - | - | - |
| 1778054846 | 7.78° C | 52% | 1014.1 hPa | - | - | - | - |
| 1778053646 | 7.22° C | 54% | 1014.1 hPa | - | - | - | - |
| 1778052447 | 6.67° C | 63% | 1013.9 hPa | - | - | - | - |
| 1778051246 | 6.67° C | 66% | 1013.7 hPa | - | - | - | - |
| 1778050046 | 6.67° C | 68% | 1013.5 hPa | - | - | - | - |
| 1778048846 | 6.11° C | 70% | 1013.4 hPa | - | - | - | - |
| 1778047645 | 6.11° C | 70% | 1013.3 hPa | - | - | - | - |
| 1778046445 | 6.11° C | 73% | 1013 hPa | - | - | - | - |
| 1778045246 | 6.11° C | 74% | 1012.9 hPa | - | - | - | - |
| 1778044045 | 5.56° C | 75% | 1012.7 hPa | - | - | - | - |
| 1778042845 | 5.56° C | 76% | 1012.6 hPa | - | - | - | - |
| 1778041645 | 5.56° C | 76% | 1012.3 hPa | - | - | - | - |
| 1778040448 | 5° C | 76% | 1012.1 hPa | - | - | - | - |
| 1778039246 | 4.44° C | 78% | 1011.9 hPa | - | - | - | - |
| 1778038045 | 4.44° C | 79% | 1011.7 hPa | - | - | - | - |
| 1778036845 | 3.89° C | 81% | 1011.6 hPa | - | - | - | - |
| 1778035645 | 3.89° C | 82% | 1011.4 hPa | - | - | - | - |
| 1778034445 | 3.89° C | 80% | 1011.3 hPa | - | - | - | - |
| 1778033244 | 4.44° C | 78% | 1011.1 hPa | - | - | - | - |
| 1778032044 | 4.44° C | 81% | 1010.9 hPa | - | - | - | - |
| 1778030844 | 4.44° C | 80% | 1010.7 hPa | - | - | - | - |
| 1778029645 | 4.44° C | 81% | 1010.5 hPa | - | - | - | - |
| 1778028444 | 4.44° C | 82% | 1010.3 hPa | - | - | - | - |
* Rain since midnight (hover to see other rain measurements)
** Current wind speed in m/s (hover to see current wind gust speed)